createdAt,value
2022-07-27T00:01:05.227Z,29.36
2022-07-27T00:03:32.628Z,29.37
2022-07-27T00:06:00.044Z,29.29
2022-07-27T00:08:28.284Z,29.39
2022-07-27T00:10:55.638Z,29.47
2022-07-27T00:13:23.106Z,29.57
2022-07-27T00:15:50.548Z,29.61
2022-07-27T00:18:18.080Z,29.64
2022-07-27T00:20:45.495Z,29.64
2022-07-27T00:23:12.958Z,29.60
2022-07-27T00:25:40.631Z,29.34
2022-07-27T00:28:07.959Z,28.89
2022-07-27T00:30:35.979Z,28.63
2022-07-27T00:33:05.546Z,28.14
2022-07-27T00:35:32.931Z,27.68
2022-07-27T00:38:01.683Z,27.61
2022-07-27T00:40:29.032Z,27.26
2022-07-27T00:42:56.415Z,26.94
2022-07-27T00:45:23.951Z,26.62
2022-07-27T00:47:54.876Z,26.43
2022-07-27T00:50:22.533Z,26.29
2022-07-27T00:52:50.315Z,26.25
2022-07-27T00:55:17.709Z,25.80
2022-07-27T00:57:58.162Z,25.25
2022-07-27T01:00:27.956Z,25.19
2022-07-27T01:02:57.151Z,25.02
2022-07-27T01:05:26.545Z,25.02
2022-07-27T01:08:05.251Z,25.17
2022-07-27T01:10:33.781Z,25.37
2022-07-27T01:13:01.853Z,25.29
2022-07-27T01:15:29.976Z,25.17
2022-07-27T01:17:57.610Z,25.39
2022-07-27T01:20:25.066Z,25.41
2022-07-27T01:22:52.371Z,25.34
2022-07-27T01:25:19.778Z,25.32
2022-07-27T01:27:47.194Z,25.29
2022-07-27T01:30:26.989Z,25.28
2022-07-27T01:33:06.029Z,25.22
2022-07-27T01:35:33.790Z,25.13
2022-07-27T01:38:01.361Z,24.98
2022-07-27T01:40:29.114Z,25.06
2022-07-27T01:42:56.563Z,25.02
2022-07-27T01:45:23.913Z,24.81
2022-07-27T01:47:51.284Z,24.75
2022-07-27T01:50:20.909Z,24.64
2022-07-27T01:52:48.704Z,24.77
2022-07-27T01:55:16.146Z,24.37
2022-07-27T01:57:43.594Z,24.50
2022-07-27T02:00:12.252Z,24.26
2022-07-27T02:02:42.458Z,24.23
2022-07-27T02:05:13.641Z,24.33
2022-07-27T02:07:41.916Z,24.10
2022-07-27T02:10:10.548Z,24.06
2022-07-27T02:12:38.204Z,23.90
2022-07-27T02:15:16.344Z,23.76
2022-07-27T02:17:44.743Z,23.73
2022-07-27T02:20:14.872Z,23.47
2022-07-27T02:22:42.464Z,23.66
2022-07-27T02:25:12.055Z,23.55
2022-07-27T02:27:40.681Z,23.48
2022-07-27T02:30:11.423Z,23.52
2022-07-27T02:32:40.833Z,23.21
2022-07-27T02:35:18.640Z,23.28
2022-07-27T02:37:48.909Z,23.59
2022-07-27T02:40:18.193Z,23.56
2022-07-27T02:42:47.222Z,23.54
2022-07-27T02:45:15.363Z,23.62
2022-07-27T02:47:43.859Z,23.63
2022-07-27T02:50:11.350Z,23.65
2022-07-27T02:52:38.947Z,23.65
2022-07-27T02:55:06.881Z,23.69
2022-07-27T02:57:34.426Z,23.64
2022-07-27T03:00:08.683Z,23.53
2022-07-27T03:02:36.555Z,23.91
2022-07-27T03:05:05.347Z,24.24
2022-07-27T03:07:32.792Z,23.96
2022-07-27T03:10:00.212Z,23.80
2022-07-27T03:12:27.642Z,23.73
2022-07-27T03:14:54.962Z,23.75
2022-07-27T03:17:22.283Z,23.41
2022-07-27T03:19:49.924Z,23.47
2022-07-27T03:22:17.314Z,23.39
2022-07-27T03:24:44.679Z,23.40
2022-07-27T03:27:12.054Z,23.75
2022-07-27T03:29:39.579Z,23.59
2022-07-27T03:32:07.075Z,23.44
2022-07-27T03:34:34.368Z,23.29
2022-07-27T03:37:02.212Z,23.42
2022-07-27T03:39:29.567Z,23.44
2022-07-27T03:41:57.181Z,23.59
2022-07-27T03:44:24.508Z,23.48
2022-07-27T03:46:51.861Z,23.35
2022-07-27T03:49:19.337Z,23.45
2022-07-27T03:51:46.743Z,23.48
2022-07-27T03:54:14.300Z,23.55
2022-07-27T03:56:42.020Z,23.70
2022-07-27T03:59:10.109Z,23.55
2022-07-27T04:01:37.797Z,23.58
2022-07-27T04:04:05.463Z,23.91
2022-07-27T04:06:32.885Z,23.76
2022-07-27T04:09:11.855Z,23.70
2022-07-27T04:11:43.536Z,23.12
2022-07-27T04:14:18.858Z,23.31
2022-07-27T04:16:47.022Z,23.40
2022-07-27T04:19:14.775Z,23.89
2022-07-27T04:21:42.289Z,23.81
2022-07-27T04:24:09.665Z,23.39
2022-07-27T04:26:37.232Z,23.55
2022-07-27T04:29:04.662Z,23.53
2022-07-27T04:31:31.986Z,23.61
2022-07-27T04:33:59.434Z,23.53
2022-07-27T04:36:26.884Z,23.38
2022-07-27T04:38:54.370Z,23.21
2022-07-27T04:41:21.762Z,23.30
2022-07-27T04:43:49.114Z,23.48
2022-07-27T04:46:17.020Z,23.68
2022-07-27T04:48:49.341Z,23.84
2022-07-27T04:51:18.536Z,23.87
2022-07-27T04:53:52.809Z,23.75
2022-07-27T04:56:26.559Z,23.45
2022-07-27T04:58:54.849Z,23.48
2022-07-27T05:01:27.361Z,23.63
2022-07-27T05:03:56.683Z,23.98
2022-07-27T05:06:24.050Z,23.83
2022-07-27T05:08:51.386Z,24.11
2022-07-27T05:11:18.706Z,24.19
2022-07-27T05:13:46.129Z,24.19
2022-07-27T05:16:15.073Z,24.11
2022-07-27T05:18:42.488Z,24.03
2022-07-27T05:21:09.841Z,23.98
2022-07-27T05:23:37.294Z,23.94
2022-07-27T05:26:05.055Z,24.19
2022-07-27T05:28:32.415Z,24.01
2022-07-27T05:30:59.743Z,24.09
2022-07-27T05:33:27.063Z,23.87
2022-07-27T05:35:56.614Z,23.80
2022-07-27T05:38:23.994Z,23.96
2022-07-27T05:40:53.157Z,24.06
2022-07-27T05:43:20.761Z,24.11
2022-07-27T05:45:48.227Z,24.15
2022-07-27T05:48:15.630Z,24.17
2022-07-27T05:50:45.582Z,24.26
2022-07-27T05:53:12.981Z,24.21
2022-07-27T05:55:58.023Z,24.32
2022-07-27T05:58:29.446Z,24.30
2022-07-27T06:00:57.081Z,24.29
2022-07-27T06:03:24.619Z,24.52
2022-07-27T06:05:52.276Z,24.70
2022-07-27T06:08:19.645Z,24.90
2022-07-27T06:10:47.090Z,24.87
2022-07-27T06:13:14.508Z,25.02
2022-07-27T06:15:41.863Z,25.01
2022-07-27T06:18:16.782Z,25.00
2022-07-27T06:20:45.716Z,24.84
2022-07-27T06:23:13.234Z,24.96
2022-07-27T06:25:40.579Z,24.85
2022-07-27T06:28:09.117Z,24.88
2022-07-27T06:30:36.590Z,25.08
2022-07-27T06:33:07.119Z,24.88
2022-07-27T06:35:34.915Z,24.75
2022-07-27T06:38:05.497Z,24.88
2022-07-27T06:40:32.902Z,25.11
2022-07-27T06:43:00.564Z,25.40
2022-07-27T06:45:28.151Z,25.53
2022-07-27T06:47:55.502Z,25.75
2022-07-27T06:50:23.431Z,25.83
2022-07-27T06:52:51.909Z,25.79
2022-07-27T06:55:19.255Z,25.92
2022-07-27T06:57:46.698Z,25.83
2022-07-27T07:00:15.043Z,25.97
2022-07-27T07:02:57.183Z,26.03
2022-07-27T07:05:25.463Z,25.63
2022-07-27T07:07:53.425Z,26.04
2022-07-27T07:10:23.803Z,25.87
2022-07-27T07:12:56.073Z,25.68
2022-07-27T07:15:25.418Z,25.65
2022-07-27T07:17:54.244Z,25.80
2022-07-27T07:20:22.340Z,25.89
2022-07-27T07:22:50.334Z,25.92
2022-07-27T07:25:18.003Z,25.74
2022-07-27T07:27:45.310Z,26.21
2022-07-27T07:30:13.004Z,26.37
2022-07-27T07:32:40.449Z,27.10
2022-07-27T07:35:08.493Z,26.97
2022-07-27T07:37:35.971Z,26.99
2022-07-27T07:40:32.133Z,27.36
2022-07-27T07:42:57.530Z,27.52
2022-07-27T07:45:25.056Z,27.13
2022-07-27T07:47:53.927Z,27.62
2022-07-27T07:50:22.712Z,27.55
2022-07-27T07:52:51.866Z,27.76
2022-07-27T07:55:23.728Z,27.78
2022-07-27T07:57:51.150Z,27.93
2022-07-27T08:00:20.889Z,28.30
2022-07-27T08:02:57.699Z,27.90
2022-07-27T08:05:26.234Z,28.42
2022-07-27T08:07:53.997Z,28.18
2022-07-27T08:10:22.379Z,28.35
2022-07-27T08:12:53.058Z,28.46
2022-07-27T08:15:22.074Z,28.47
2022-07-27T08:18:04.883Z,28.88
2022-07-27T08:20:33.276Z,28.69
2022-07-27T08:23:00.689Z,28.62
2022-07-27T08:25:47.406Z,28.72
2022-07-27T08:28:14.985Z,28.97
2022-07-27T08:30:42.332Z,29.06
2022-07-27T08:33:11.235Z,29.07
2022-07-27T08:35:38.609Z,29.54
2022-07-27T08:38:07.498Z,29.53
2022-07-27T08:40:40.503Z,29.75
2022-07-27T08:43:10.150Z,29.82
2022-07-27T08:45:37.760Z,29.96
2022-07-27T08:48:06.100Z,30.36
2022-07-27T08:50:35.335Z,30.00
2022-07-27T08:53:08.942Z,30.34
2022-07-27T08:55:39.741Z,30.24
2022-07-27T08:58:08.950Z,30.08
2022-07-27T09:00:39.822Z,30.48
2022-07-27T09:03:07.922Z,30.66
2022-07-27T09:05:43.411Z,31.07
2022-07-27T09:08:16.095Z,31.16
2022-07-27T09:10:43.887Z,31.25
2022-07-27T09:13:22.185Z,31.38
2022-07-27T09:18:40.449Z,30.77
2022-07-27T09:21:12.210Z,30.85
2022-07-27T09:23:45.954Z,30.49
2022-07-27T09:26:33.203Z,30.98
2022-07-27T09:29:07.245Z,31.16
2022-07-27T09:32:01.064Z,31.59
2022-07-27T09:34:33.357Z,31.40
2022-07-27T09:37:05.746Z,31.28
2022-07-27T09:39:33.549Z,31.33
2022-07-27T09:42:02.665Z,30.85
2022-07-27T09:44:42.688Z,31.46
2022-07-27T09:47:29.249Z,30.60
2022-07-27T09:50:19.954Z,30.88
2022-07-27T09:52:47.740Z,31.23
2022-07-27T09:55:20.085Z,31.49
2022-07-27T09:57:56.245Z,31.60
2022-07-27T10:00:27.452Z,31.88
2022-07-27T10:02:55.353Z,31.98
2022-07-27T10:05:23.672Z,32.04
2022-07-27T10:07:53.478Z,31.80
2022-07-27T10:10:22.305Z,32.02
2022-07-27T10:12:54.608Z,32.08
2022-07-27T10:15:24.894Z,31.84
2022-07-27T10:18:08.706Z,31.46
2022-07-27T10:20:40.137Z,31.38
2022-07-27T10:23:08.927Z,31.16
2022-07-27T10:25:38.019Z,31.55
2022-07-27T10:28:17.477Z,31.43
2022-07-27T10:30:47.257Z,31.61
2022-07-27T10:33:42.876Z,31.79
2022-07-27T10:36:37.461Z,31.84
2022-07-27T10:39:08.804Z,31.76
2022-07-27T10:41:41.515Z,31.66
2022-07-27T10:44:28.243Z,32.59
2022-07-27T10:47:04.629Z,32.25
2022-07-27T10:49:40.307Z,31.58
2022-07-27T10:52:47.749Z,31.94
2022-07-27T10:55:30.955Z,32.28
2022-07-27T10:58:14.892Z,32.10
2022-07-27T11:00:55.244Z,32.21
2022-07-27T11:03:33.326Z,32.14
2022-07-27T11:06:31.989Z,32.03
2022-07-27T11:11:49.641Z,32.59
2022-07-27T11:14:19.106Z,32.87
2022-07-27T11:16:55.271Z,32.87
2022-07-27T11:19:24.620Z,32.41
2022-07-27T11:21:53.903Z,32.74
2022-07-27T11:24:23.537Z,33.04
2022-07-27T11:26:52.617Z,32.89
2022-07-27T11:29:23.071Z,32.39
2022-07-27T11:31:57.598Z,32.27
2022-07-27T11:34:35.028Z,32.27
2022-07-27T11:37:05.793Z,32.34
2022-07-27T11:39:59.637Z,32.52
2022-07-27T11:42:23.439Z,32.64
2022-07-27T11:44:53.059Z,32.37
2022-07-27T11:47:21.781Z,32.85
2022-07-27T11:49:49.212Z,32.66
2022-07-27T11:52:18.403Z,32.81
2022-07-27T11:54:51.358Z,32.68
2022-07-27T11:57:20.496Z,32.77
2022-07-27T11:59:47.932Z,33.29
2022-07-27T12:02:19.644Z,32.78
2022-07-27T12:04:49.279Z,32.61
2022-07-27T12:07:29.977Z,32.89
2022-07-27T12:10:03.488Z,33.45
2022-07-27T12:12:32.831Z,33.17
2022-07-27T12:15:16.534Z,32.97
2022-07-27T12:17:57.245Z,32.96
2022-07-27T12:20:33.012Z,32.83
2022-07-27T12:23:08.550Z,32.99
2022-07-27T12:25:37.435Z,33.19
2022-07-27T12:28:08.823Z,33.44
2022-07-27T12:30:45.155Z,33.20
2022-07-27T12:33:39.470Z,32.68
2022-07-27T12:36:08.755Z,33.02
2022-07-27T12:38:44.347Z,33.17
2022-07-27T12:41:24.187Z,33.23
2022-07-27T12:44:18.422Z,33.27
2022-07-27T12:46:55.953Z,33.49
2022-07-27T12:49:34.309Z,33.47
2022-07-27T12:52:06.808Z,33.12
2022-07-27T12:54:34.471Z,33.37
2022-07-27T12:57:02.735Z,33.44
2022-07-27T12:59:30.175Z,33.86
2022-07-27T13:01:57.637Z,33.98
2022-07-27T13:04:26.536Z,34.39
2022-07-27T13:06:54.064Z,34.15
2022-07-27T13:09:21.480Z,33.93
2022-07-27T13:11:48.878Z,33.60
2022-07-27T13:14:16.381Z,33.44
2022-07-27T13:16:43.780Z,33.37
2022-07-27T13:19:14.178Z,33.53
2022-07-27T13:21:41.930Z,33.63
2022-07-27T13:24:10.297Z,33.72
2022-07-27T13:26:39.291Z,33.80
2022-07-27T13:29:06.853Z,33.87
2022-07-27T13:31:34.538Z,33.56
2022-07-27T13:34:01.973Z,33.63
2022-07-27T13:36:29.351Z,34.01
2022-07-27T13:38:59.667Z,33.87
2022-07-27T13:41:27.251Z,34.01
2022-07-27T13:43:54.614Z,33.95
2022-07-27T13:46:22.039Z,34.04
2022-07-27T13:48:49.555Z,33.92
2022-07-27T13:51:16.921Z,34.04
2022-07-27T13:53:46.905Z,33.35
2022-07-27T13:56:14.364Z,33.45
2022-07-27T13:58:41.783Z,33.56
2022-07-27T14:01:09.300Z,33.58
2022-07-27T14:03:37.467Z,33.47
2022-07-27T14:06:06.577Z,33.56
2022-07-27T14:08:35.913Z,33.35
2022-07-27T14:11:03.440Z,33.17
2022-07-27T14:13:32.785Z,33.52
2022-07-27T14:16:01.523Z,33.31
2022-07-27T14:18:30.781Z,33.41
2022-07-27T14:21:06.575Z,33.29
2022-07-27T14:23:35.285Z,33.41
2022-07-27T14:26:06.126Z,33.20
2022-07-27T14:28:33.882Z,33.44
2022-07-27T14:31:06.605Z,33.46
2022-07-27T14:33:36.584Z,33.22
2022-07-27T14:36:05.878Z,33.27
2022-07-27T14:38:33.347Z,33.07
2022-07-27T14:41:01.076Z,33.27
2022-07-27T14:43:30.231Z,33.21
2022-07-27T14:46:01.737Z,33.18
2022-07-27T14:48:55.562Z,33.10
2022-07-27T14:51:16.528Z,33.03
2022-07-27T14:53:43.910Z,33.01
2022-07-27T14:56:11.318Z,33.08
2022-07-27T14:58:38.642Z,33.11
2022-07-27T15:01:06.059Z,32.94
2022-07-27T15:03:33.483Z,33.05
2022-07-27T15:06:00.867Z,32.90
2022-07-27T15:08:28.226Z,33.11
2022-07-27T15:10:57.382Z,32.95
2022-07-27T15:13:24.958Z,32.76
2022-07-27T15:15:53.045Z,32.55
2022-07-27T15:18:21.040Z,32.68
2022-07-27T15:20:48.477Z,32.57
2022-07-27T15:23:16.533Z,32.36
2022-07-27T15:25:43.988Z,32.42
2022-07-27T15:28:11.977Z,32.45
2022-07-27T15:30:39.581Z,32.35
2022-07-27T15:33:07.675Z,32.40
2022-07-27T15:35:35.199Z,32.35
2022-07-27T15:38:03.190Z,32.36
2022-07-27T15:40:41.727Z,32.00
2022-07-27T15:43:15.125Z,32.07
2022-07-27T15:45:45.768Z,32.05
2022-07-27T15:48:13.733Z,31.90
2022-07-27T15:50:45.184Z,31.97
2022-07-27T15:53:14.187Z,31.87
2022-07-27T15:55:45.223Z,31.99
2022-07-27T15:58:13.970Z,32.04
2022-07-27T16:00:41.680Z,32.08
2022-07-27T16:03:10.549Z,32.03
2022-07-27T16:05:38.877Z,32.07
2022-07-27T16:08:09.600Z,31.91
2022-07-27T16:10:41.386Z,32.01
2022-07-27T16:13:09.472Z,32.08
2022-07-27T16:15:57.739Z,32.06
2022-07-27T16:18:25.588Z,31.90
2022-07-27T16:20:53.251Z,31.86
2022-07-27T16:23:22.296Z,31.82
2022-07-27T16:26:03.938Z,31.75
2022-07-27T16:28:34.017Z,31.80
2022-07-27T16:31:01.834Z,31.78
2022-07-27T16:33:30.270Z,31.82
2022-07-27T16:35:58.053Z,31.68
2022-07-27T16:38:25.686Z,31.65
2022-07-27T16:40:53.145Z,31.53
2022-07-27T16:43:20.675Z,31.77
2022-07-27T16:45:48.158Z,31.65
2022-07-27T16:48:15.641Z,31.60
2022-07-27T16:50:42.958Z,31.56
2022-07-27T16:53:10.657Z,31.50
2022-07-27T16:55:37.975Z,31.43
2022-07-27T16:58:05.364Z,31.42
2022-07-27T17:00:38.217Z,31.33
2022-07-27T17:03:06.381Z,31.32
2022-07-27T17:05:34.115Z,31.19
2022-07-27T17:08:01.426Z,31.23
2022-07-27T17:10:28.859Z,31.24
2022-07-27T17:12:57.903Z,31.41
2022-07-27T17:15:25.435Z,31.40
2022-07-27T17:17:53.037Z,31.48
2022-07-27T17:20:34.931Z,31.32
2022-07-27T17:23:05.954Z,31.46
2022-07-27T17:25:33.327Z,31.18
2022-07-27T17:28:00.713Z,30.86
2022-07-27T17:30:27.994Z,31.06
2022-07-27T17:32:55.434Z,31.04
2022-07-27T17:35:22.826Z,31.00
2022-07-27T17:38:05.531Z,30.95
2022-07-27T17:40:34.530Z,31.16
2022-07-27T17:43:02.111Z,31.20
2022-07-27T17:45:29.544Z,31.09
2022-07-27T17:47:57.151Z,30.91
2022-07-27T17:50:24.564Z,30.80
2022-07-27T17:52:56.356Z,30.61
2022-07-27T17:55:23.766Z,30.51
2022-07-27T17:57:51.356Z,30.61
2022-07-27T18:00:18.789Z,30.48
2022-07-27T18:02:46.290Z,30.57
2022-07-27T18:05:13.591Z,30.59
2022-07-27T18:07:41.415Z,30.60
2022-07-27T18:10:09.245Z,30.43
2022-07-27T18:12:36.844Z,30.27
2022-07-27T18:15:23.322Z,30.23
2022-07-27T18:17:50.860Z,30.39
2022-07-27T18:20:18.210Z,30.47
2022-07-27T18:22:45.516Z,30.45
2022-07-27T18:25:13.077Z,30.29
2022-07-27T18:27:40.909Z,30.17
2022-07-27T18:30:08.923Z,30.14
2022-07-27T18:32:37.030Z,30.22
2022-07-27T18:35:05.417Z,30.24
2022-07-27T18:37:32.810Z,30.17
2022-07-27T18:40:01.061Z,30.11
2022-07-27T18:42:28.393Z,29.91
2022-07-27T18:44:55.865Z,29.92
2022-07-27T18:47:23.191Z,29.94
2022-07-27T18:49:50.500Z,30.06
2022-07-27T18:52:18.048Z,30.04
2022-07-27T18:54:45.338Z,29.88
2022-07-27T18:57:12.756Z,29.66
2022-07-27T18:59:41.258Z,29.65
2022-07-27T19:02:08.999Z,29.67
2022-07-27T19:04:37.072Z,29.49
2022-07-27T19:07:07.204Z,29.46
2022-07-27T19:09:34.622Z,29.69
2022-07-27T19:12:06.035Z,29.55
2022-07-27T19:14:37.048Z,29.42
2022-07-27T19:17:05.476Z,29.48
2022-07-27T19:19:33.118Z,29.48
2022-07-27T19:22:00.443Z,29.25
2022-07-27T19:24:28.141Z,29.21
2022-07-27T19:26:55.521Z,29.32
2022-07-27T19:29:25.646Z,29.33
2022-07-27T19:31:53.059Z,29.22
2022-07-27T19:34:22.007Z,29.01
2022-07-27T19:36:49.383Z,29.03
2022-07-27T19:39:17.222Z,29.21
2022-07-27T19:41:44.565Z,29.18
2022-07-27T19:44:16.766Z,29.01
2022-07-27T19:46:48.931Z,28.89
2022-07-27T19:49:18.414Z,29.08
2022-07-27T19:51:46.079Z,29.07
2022-07-27T19:54:13.711Z,28.93
2022-07-27T19:56:41.083Z,28.84
2022-07-27T19:59:08.729Z,28.90
2022-07-27T20:01:36.069Z,28.79
2022-07-27T20:04:09.275Z,28.56
2022-07-27T20:06:36.620Z,28.73
2022-07-27T20:09:05.137Z,28.73
2022-07-27T20:11:35.087Z,28.86
2022-07-27T20:14:03.292Z,28.94
2022-07-27T20:16:34.025Z,28.73
2022-07-27T20:19:02.556Z,28.74
2022-07-27T20:21:31.856Z,28.71
2022-07-27T20:24:01.919Z,28.67
2022-07-27T20:26:29.549Z,28.80
2022-07-27T20:28:59.747Z,28.63
2022-07-27T20:31:29.976Z,28.60
2022-07-27T20:33:58.179Z,28.60
2022-07-27T20:36:25.547Z,28.63
2022-07-27T20:38:53.193Z,28.65
2022-07-27T20:41:20.554Z,28.62
2022-07-27T20:43:48.162Z,28.54
2022-07-27T20:46:16.100Z,28.71
2022-07-27T20:48:43.588Z,28.53
2022-07-27T20:51:11.088Z,28.52
2022-07-27T20:53:39.418Z,28.63
2022-07-27T20:56:07.431Z,28.64
2022-07-27T20:58:34.826Z,28.58
2022-07-27T21:01:02.192Z,28.49
2022-07-27T21:03:29.679Z,28.56
2022-07-27T21:05:57.159Z,28.49
2022-07-27T21:08:25.126Z,28.42
2022-07-27T21:10:56.052Z,28.44
2022-07-27T21:13:23.766Z,28.39
2022-07-27T21:15:51.150Z,28.20
2022-07-27T21:18:18.588Z,28.17
2022-07-27T21:20:46.223Z,28.29
2022-07-27T21:23:32.122Z,28.20
2022-07-27T21:26:01.945Z,28.34
2022-07-27T21:28:30.303Z,28.34
2022-07-27T21:30:57.948Z,28.42
2022-07-27T21:33:25.394Z,28.37
2022-07-27T21:35:52.852Z,28.24
2022-07-27T21:38:20.339Z,28.42
2022-07-27T21:40:47.777Z,28.30
2022-07-27T21:43:15.129Z,28.36
2022-07-27T21:45:47.811Z,28.34
2022-07-27T21:48:17.416Z,28.21
2022-07-27T21:50:44.748Z,28.20
2022-07-27T21:53:14.683Z,28.37
2022-07-27T21:55:42.125Z,28.42
2022-07-27T21:58:12.201Z,28.58
2022-07-27T22:00:39.681Z,28.57
2022-07-27T22:03:08.056Z,28.55
2022-07-27T22:05:35.435Z,28.37
2022-07-27T22:08:02.997Z,28.22
2022-07-27T22:10:31.485Z,28.13
2022-07-27T22:12:59.258Z,28.12
2022-07-27T22:15:28.102Z,27.77
2022-07-27T22:17:55.455Z,27.81
2022-07-27T22:20:22.935Z,28.02
2022-07-27T22:22:51.268Z,28.01
2022-07-27T22:25:19.670Z,27.94
2022-07-27T22:27:47.235Z,27.94
2022-07-27T22:30:15.372Z,27.81
2022-07-27T22:32:42.786Z,27.86
2022-07-27T22:35:10.486Z,27.76
2022-07-27T22:37:38.195Z,27.79
2022-07-27T22:40:06.356Z,27.74
2022-07-27T22:42:33.717Z,27.82
2022-07-27T22:45:01.114Z,27.79
2022-07-27T22:47:28.505Z,27.71
2022-07-27T22:49:55.830Z,27.68
2022-07-27T22:52:23.405Z,27.62
2022-07-27T22:54:50.961Z,27.54
2022-07-27T22:57:18.334Z,27.65
2022-07-27T22:59:45.663Z,27.74
2022-07-27T23:02:12.999Z,27.76
2022-07-27T23:04:40.376Z,27.75
2022-07-27T23:07:10.408Z,27.77
2022-07-27T23:09:37.699Z,27.84
2022-07-27T23:12:05.632Z,27.80
2022-07-27T23:14:33.765Z,27.80
2022-07-27T23:17:01.142Z,27.79
2022-07-27T23:19:28.443Z,27.81
2022-07-27T23:22:01.465Z,27.94
2022-07-27T23:24:29.885Z,27.97
2022-07-27T23:26:57.524Z,28.00
2022-07-27T23:29:25.742Z,27.97
2022-07-27T23:31:53.372Z,27.98
2022-07-27T23:34:20.748Z,27.95
2022-07-27T23:36:48.076Z,28.00
2022-07-27T23:39:15.358Z,27.92
2022-07-27T23:41:45.328Z,27.92
2022-07-27T23:44:17.142Z,27.97
2022-07-27T23:46:44.746Z,28.01
2022-07-27T23:49:12.222Z,27.85
2022-07-27T23:51:39.558Z,28.04
2022-07-27T23:54:08.172Z,27.90
2022-07-27T23:56:35.497Z,27.88
2022-07-27T23:59:03.027Z,28.09
